sensor_id;sensor_type;location;lat;lon;timestamp;pressure;altitude;pressure_sealevel;temperature;humidity
47430;BME280;33181;49.246;7.372;2023-02-19T00:01:34;99418.25;;;8.45;100.00
47430;BME280;33181;49.246;7.372;2023-02-19T00:04:04;99423.31;;;8.48;100.00
47430;BME280;33181;49.246;7.372;2023-02-19T00:06:31;99407.06;;;8.43;100.00
47430;BME280;33181;49.246;7.372;2023-02-19T00:08:57;99422.66;;;8.30;100.00
47430;BME280;33181;49.246;7.372;2023-02-19T00:11:30;99413.38;;;8.24;100.00
47430;BME280;33181;49.246;7.372;2023-02-19T00:13:58;99414.88;;;8.14;100.00
47430;BME280;33181;49.246;7.372;2023-02-19T00:16:26;99416.19;;;8.21;100.00
47430;BME280;33181;49.246;7.372;2023-02-19T00:18:54;99421.59;;;8.18;100.00
47430;BME280;33181;49.246;7.372;2023-02-19T00:21:20;99414.31;;;8.23;100.00
47430;BME280;33181;49.246;7.372;2023-02-19T00:23:58;99410.13;;;8.21;100.00
47430;BME280;33181;49.246;7.372;2023-02-19T00:26:24;99407.50;;;8.21;100.00
47430;BME280;33181;49.246;7.372;2023-02-19T00:28:52;99405.53;;;8.24;100.00
47430;BME280;33181;49.246;7.372;2023-02-19T00:31:24;99409.63;;;8.28;100.00
47430;BME280;33181;49.246;7.372;2023-02-19T00:33:54;99404.78;;;8.22;100.00
47430;BME280;33181;49.246;7.372;2023-02-19T00:36:21;99399.66;;;8.21;100.00
47430;BME280;33181;49.246;7.372;2023-02-19T00:38:47;99407.75;;;8.16;100.00
47430;BME280;33181;49.246;7.372;2023-02-19T00:41:14;99400.28;;;8.24;100.00
47430;BME280;33181;49.246;7.372;2023-02-19T00:44:01;99399.19;;;8.14;100.00
47430;BME280;33181;49.246;7.372;2023-02-19T00:46:35;99401.88;;;8.12;100.00
47430;BME280;33181;49.246;7.372;2023-02-19T00:49:03;99406.09;;;8.15;100.00
47430;BME280;33181;49.246;7.372;2023-02-19T00:51:34;99408.16;;;8.24;100.00
47430;BME280;33181;49.246;7.372;2023-02-19T00:54:00;99411.91;;;8.20;100.00
47430;BME280;33181;49.246;7.372;2023-02-19T00:56:26;99420.59;;;8.21;100.00
47430;BME280;33181;49.246;7.372;2023-02-19T00:58:52;99416.19;;;8.21;100.00
47430;BME280;33181;49.246;7.372;2023-02-19T01:01:19;99400.47;;;8.21;100.00
47430;BME280;33181;49.246;7.372;2023-02-19T01:03:47;99419.75;;;8.20;100.00
47430;BME280;33181;49.246;7.372;2023-02-19T01:06:15;99438.63;;;8.25;100.00
47430;BME280;33181;49.246;7.372;2023-02-19T01:08:42;99443.84;;;8.25;100.00
47430;BME280;33181;49.246;7.372;2023-02-19T01:11:11;99434.22;;;8.26;100.00
47430;BME280;33181;49.246;7.372;2023-02-19T01:13:38;99429.38;;;8.20;100.00
47430;BME280;33181;49.246;7.372;2023-02-19T01:16:17;99419.91;;;8.31;100.00
47430;BME280;33181;49.246;7.372;2023-02-19T01:18:44;99405.16;;;8.30;100.00
47430;BME280;33181;49.246;7.372;2023-02-19T01:21:25;99399.47;;;8.24;100.00
47430;BME280;33181;49.246;7.372;2023-02-19T01:23:52;99396.28;;;8.33;100.00
47430;BME280;33181;49.246;7.372;2023-02-19T01:26:21;99388.81;;;8.27;100.00
47430;BME280;33181;49.246;7.372;2023-02-19T01:28:47;99390.28;;;8.31;100.00
47430;BME280;33181;49.246;7.372;2023-02-19T01:31:18;99388.63;;;8.30;100.00
47430;BME280;33181;49.246;7.372;2023-02-19T01:33:51;99390.22;;;8.32;100.00
47430;BME280;33181;49.246;7.372;2023-02-19T01:36:17;99398.16;;;8.31;100.00
47430;BME280;33181;49.246;7.372;2023-02-19T01:38:44;99407.59;;;8.33;100.00
47430;BME280;33181;49.246;7.372;2023-02-19T01:41:14;99404.50;;;8.27;100.00
47430;BME280;33181;49.246;7.372;2023-02-19T01:46:30;99405.53;;;8.24;100.00
47430;BME280;33181;49.246;7.372;2023-02-19T01:49:01;99407.38;;;8.22;100.00
47430;BME280;33181;49.246;7.372;2023-02-19T01:51:30;99401.59;;;8.31;100.00
47430;BME280;33181;49.246;7.372;2023-02-19T01:54:01;99401.41;;;8.34;100.00
47430;BME280;33181;49.246;7.372;2023-02-19T01:56:30;99397.88;;;8.35;100.00
47430;BME280;33181;49.246;7.372;2023-02-19T01:58:58;99394.59;;;8.32;100.00
47430;BME280;33181;49.246;7.372;2023-02-19T02:01:24;99380.59;;;8.33;100.00
47430;BME280;33181;49.246;7.372;2023-02-19T02:03:50;99386.72;;;8.32;100.00
47430;BME280;33181;49.246;7.372;2023-02-19T02:06:33;99386.91;;;8.29;100.00
47430;BME280;33181;49.246;7.372;2023-02-19T02:09:01;99382.63;;;8.28;100.00
47430;BME280;33181;49.246;7.372;2023-02-19T02:11:50;99383.28;;;8.31;100.00
47430;BME280;33181;49.246;7.372;2023-02-19T02:14:24;99371.31;;;8.27;100.00
47430;BME280;33181;49.246;7.372;2023-02-19T02:17:27;99370.31;;;8.30;100.00
47430;BME280;33181;49.246;7.372;2023-02-19T02:20:31;99357.47;;;8.25;100.00
47430;BME280;33181;49.246;7.372;2023-02-19T02:23:27;99365.16;;;8.28;100.00
47430;BME280;33181;49.246;7.372;2023-02-19T02:32:01;99352.81;;;8.30;100.00
47430;BME280;33181;49.246;7.372;2023-02-19T02:34:46;99345.34;;;8.24;100.00
47430;BME280;33181;49.246;7.372;2023-02-19T02:37:13;99340.56;;;8.31;100.00
47430;BME280;33181;49.246;7.372;2023-02-19T02:39:41;99331.97;;;8.29;100.00
47430;BME280;33181;49.246;7.372;2023-02-19T02:42:09;99343.47;;;8.26;100.00
47430;BME280;33181;49.246;7.372;2023-02-19T02:44:54;99336.72;;;8.36;100.00
47430;BME280;33181;49.246;7.372;2023-02-19T02:47:51;99330.75;;;8.34;100.00
47430;BME280;33181;49.246;7.372;2023-02-19T02:51:03;99337.69;;;8.35;100.00
47430;BME280;33181;49.246;7.372;2023-02-19T02:53:31;99332.06;;;8.42;100.00
47430;BME280;33181;49.246;7.372;2023-02-19T02:56:19;99335.06;;;8.35;100.00
47430;BME280;33181;49.246;7.372;2023-02-19T02:58:48;99336.28;;;8.30;100.00
47430;BME280;33181;49.246;7.372;2023-02-19T03:01:26;99337.53;;;8.39;100.00
47430;BME280;33181;49.246;7.372;2023-02-19T03:04:46;99345.28;;;8.40;100.00
47430;BME280;33181;49.246;7.372;2023-02-19T03:07:35;99345.53;;;8.35;100.00
47430;BME280;33181;49.246;7.372;2023-02-19T03:10:06;99339.72;;;8.45;100.00
47430;BME280;33181;49.246;7.372;2023-02-19T03:12:34;99334.78;;;8.40;100.00
47430;BME280;33181;49.246;7.372;2023-02-19T03:15:26;99334.13;;;8.36;100.00
47430;BME280;33181;49.246;7.372;2023-02-19T03:18:13;99334.13;;;8.36;100.00
47430;BME280;33181;49.246;7.372;2023-02-19T03:21:00;99333.28;;;8.36;100.00
47430;BME280;33181;49.246;7.372;2023-02-19T03:23:31;99325.50;;;8.34;100.00
47430;BME280;33181;49.246;7.372;2023-02-19T03:26:17;99324.97;;;8.44;100.00
47430;BME280;33181;49.246;7.372;2023-02-19T03:28:45;99326.84;;;8.42;100.00
47430;BME280;33181;49.246;7.372;2023-02-19T03:31:32;99329.38;;;8.43;100.00
47430;BME280;33181;49.246;7.372;2023-02-19T03:34:07;99331.69;;;8.48;100.00
47430;BME280;33181;49.246;7.372;2023-02-19T03:36:45;99326.56;;;8.46;100.00
47430;BME280;33181;49.246;7.372;2023-02-19T03:39:15;99332.75;;;8.45;100.00
47430;BME280;33181;49.246;7.372;2023-02-19T03:45:01;99327.50;;;8.45;100.00
47430;BME280;33181;49.246;7.372;2023-02-19T03:47:51;99328.03;;;8.50;100.00
47430;BME280;33181;49.246;7.372;2023-02-19T03:50:34;99334.50;;;8.45;100.00
47430;BME280;33181;49.246;7.372;2023-02-19T04:01:26;99338.91;;;8.44;100.00
47430;BME280;33181;49.246;7.372;2023-02-19T04:04:20;99348.25;;;8.48;100.00
47430;BME280;33181;49.246;7.372;2023-02-19T04:06:48;99344.69;;;8.49;100.00
47430;BME280;33181;49.246;7.372;2023-02-19T04:09:19;99333.09;;;8.53;100.00
47430;BME280;33181;49.246;7.372;2023-02-19T04:11:47;99338.13;;;8.56;100.00
47430;BME280;33181;49.246;7.372;2023-02-19T04:14:28;99332.63;;;8.47;100.00
47430;BME280;33181;49.246;7.372;2023-02-19T04:17:02;99339.53;;;8.48;100.00
47430;BME280;33181;49.246;7.372;2023-02-19T04:19:32;99343.84;;;8.49;100.00
47430;BME280;33181;49.246;7.372;2023-02-19T04:22:01;99348.78;;;8.53;100.00
47430;BME280;33181;49.246;7.372;2023-02-19T04:24:38;99354.22;;;8.50;100.00
47430;BME280;33181;49.246;7.372;2023-02-19T04:27:05;99356.00;;;8.50;100.00
47430;BME280;33181;49.246;7.372;2023-02-19T04:29:33;99353.56;;;8.47;100.00
47430;BME280;33181;49.246;7.372;2023-02-19T04:31:59;99360.28;;;8.51;100.00
47430;BME280;33181;49.246;7.372;2023-02-19T04:34:24;99367.69;;;8.58;100.00
47430;BME280;33181;49.246;7.372;2023-02-19T04:36:50;99378.44;;;8.54;100.00
47430;BME280;33181;49.246;7.372;2023-02-19T04:39:17;99369.75;;;8.53;100.00
47430;BME280;33181;49.246;7.372;2023-02-19T04:41:43;99375.34;;;8.62;100.00
47430;BME280;33181;49.246;7.372;2023-02-19T04:44:08;99379.19;;;8.56;100.00
47430;BME280;33181;49.246;7.372;2023-02-19T04:46:34;99377.13;;;8.61;100.00
47430;BME280;33181;49.246;7.372;2023-02-19T04:49:00;99371.41;;;8.69;100.00
47430;BME280;33181;49.246;7.372;2023-02-19T04:51:26;99373.25;;;8.67;100.00
47430;BME280;33181;49.246;7.372;2023-02-19T04:53:51;99371.59;;;8.66;100.00
47430;BME280;33181;49.246;7.372;2023-02-19T04:56:17;99368.13;;;8.65;100.00
47430;BME280;33181;49.246;7.372;2023-02-19T04:58:44;99375.44;;;8.60;100.00
47430;BME280;33181;49.246;7.372;2023-02-19T05:01:10;99376.50;;;8.57;100.00
47430;BME280;33181;49.246;7.372;2023-02-19T05:03:36;99387.31;;;8.66;100.00
47430;BME280;33181;49.246;7.372;2023-02-19T05:06:05;99380.47;;;8.63;100.00
47430;BME280;33181;49.246;7.372;2023-02-19T05:08:31;99387.03;;;8.70;100.00
47430;BME280;33181;49.246;7.372;2023-02-19T05:11:02;99395.72;;;8.71;100.00
47430;BME280;33181;49.246;7.372;2023-02-19T05:13:28;99400.84;;;8.72;100.00
47430;BME280;33181;49.246;7.372;2023-02-19T05:16:22;99400.78;;;8.59;100.00
47430;BME280;33181;49.246;7.372;2023-02-19T05:18:47;99400.69;;;8.61;100.00
47430;BME280;33181;49.246;7.372;2023-02-19T05:21:14;99406.59;;;8.65;100.00
47430;BME280;33181;49.246;7.372;2023-02-19T05:23:40;99390.75;;;8.66;100.00
47430;BME280;33181;49.246;7.372;2023-02-19T05:26:13;99395.63;;;8.72;100.00
47430;BME280;33181;49.246;7.372;2023-02-19T05:28:43;99408.06;;;8.69;100.00
47430;BME280;33181;49.246;7.372;2023-02-19T05:31:10;99411.91;;;8.63;100.00
47430;BME280;33181;49.246;7.372;2023-02-19T05:33:36;99410.88;;;8.66;100.00
47430;BME280;33181;49.246;7.372;2023-02-19T05:36:10;99414.53;;;8.63;100.00
47430;BME280;33181;49.246;7.372;2023-02-19T05:38:36;99414.44;;;8.65;100.00
47430;BME280;33181;49.246;7.372;2023-02-19T05:41:12;99414.78;;;8.73;100.00
47430;BME280;33181;49.246;7.372;2023-02-19T05:43:39;99420.03;;;8.73;100.00
47430;BME280;33181;49.246;7.372;2023-02-19T05:46:06;99422.19;;;8.66;100.00
47430;BME280;33181;49.246;7.372;2023-02-19T05:48:33;99430.81;;;8.68;100.00
47430;BME280;33181;49.246;7.372;2023-02-19T05:51:12;99422.38;;;8.63;100.00
47430;BME280;33181;49.246;7.372;2023-02-19T05:53:59;99425.19;;;8.60;100.00
47430;BME280;33181;49.246;7.372;2023-02-19T05:56:40;99438.66;;;8.68;100.00
47430;BME280;33181;49.246;7.372;2023-02-19T05:59:19;99443.97;;;8.67;100.00
47430;BME280;33181;49.246;7.372;2023-02-19T06:01:46;99448.31;;;8.68;100.00
47430;BME280;33181;49.246;7.372;2023-02-19T06:04:13;99441.84;;;8.73;100.00
47430;BME280;33181;49.246;7.372;2023-02-19T06:06:40;99448.66;;;8.76;100.00
47430;BME280;33181;49.246;7.372;2023-02-19T06:09:07;99454.75;;;8.76;100.00
47430;BME280;33181;49.246;7.372;2023-02-19T06:11:33;99451.19;;;8.77;100.00
47430;BME280;33181;49.246;7.372;2023-02-19T06:13:59;99456.06;;;8.84;100.00
47430;BME280;33181;49.246;7.372;2023-02-19T06:16:27;99464.81;;;8.82;100.00
47430;BME280;33181;49.246;7.372;2023-02-19T06:18:53;99463.63;;;8.88;100.00
47430;BME280;33181;49.246;7.372;2023-02-19T06:21:19;99458.09;;;8.93;100.00
47430;BME280;33181;49.246;7.372;2023-02-19T06:23:45;99466.16;;;8.90;100.00
47430;BME280;33181;49.246;7.372;2023-02-19T06:26:17;99474.00;;;8.90;100.00
47430;BME280;33181;49.246;7.372;2023-02-19T06:28:45;99473.44;;;8.85;100.00
47430;BME280;33181;49.246;7.372;2023-02-19T06:31:12;99473.81;;;8.93;100.00
47430;BME280;33181;49.246;7.372;2023-02-19T06:33:39;99480.34;;;8.86;100.00
47430;BME280;33181;49.246;7.372;2023-02-19T06:36:12;99480.53;;;8.82;100.00
47430;BME280;33181;49.246;7.372;2023-02-19T06:38:38;99482.97;;;8.86;100.00
47430;BME280;33181;49.246;7.372;2023-02-19T06:41:06;99491.97;;;8.81;100.00
47430;BME280;33181;49.246;7.372;2023-02-19T06:43:32;99494.13;;;8.89;100.00
47430;BME280;33181;49.246;7.372;2023-02-19T06:46:00;99494.78;;;8.78;100.00
47430;BME280;33181;49.246;7.372;2023-02-19T06:48:28;99498.16;;;8.80;100.00
47430;BME280;33181;49.246;7.372;2023-02-19T06:50:54;99504.03;;;8.84;100.00
47430;BME280;33181;49.246;7.372;2023-02-19T06:53:21;99501.03;;;8.90;100.00
47430;BME280;33181;49.246;7.372;2023-02-19T06:56:01;99510.13;;;8.85;100.00
47430;BME280;33181;49.246;7.372;2023-02-19T06:58:27;99507.50;;;8.85;100.00
47430;BME280;33181;49.246;7.372;2023-02-19T07:00:54;99509.47;;;8.81;100.00
47430;BME280;33181;49.246;7.372;2023-02-19T07:03:20;99512.94;;;8.81;100.00
47430;BME280;33181;49.246;7.372;2023-02-19T07:05:46;99507.03;;;8.78;100.00
47430;BME280;33181;49.246;7.372;2023-02-19T07:08:12;99505.63;;;8.87;99.92
47430;BME280;33181;49.246;7.372;2023-02-19T07:10:38;99513.09;;;8.78;100.00
47430;BME280;33181;49.246;7.372;2023-02-19T07:13:03;99514.53;;;8.84;100.00
47430;BME280;33181;49.246;7.372;2023-02-19T07:15:29;99518.09;;;8.83;100.00
47430;BME280;33181;49.246;7.372;2023-02-19T07:17:55;99519.09;;;8.80;100.00
47430;BME280;33181;49.246;7.372;2023-02-19T07:20:21;99527.69;;;8.82;100.00
47430;BME280;33181;49.246;7.372;2023-02-19T07:22:46;99529.22;;;8.87;99.95
47430;BME280;33181;49.246;7.372;2023-02-19T07:25:12;99535.00;;;8.92;99.06
47430;BME280;33181;49.246;7.372;2023-02-19T07:27:38;99532.31;;;8.93;99.53
47430;BME280;33181;49.246;7.372;2023-02-19T07:30:05;99532.00;;;8.98;99.20
47430;BME280;33181;49.246;7.372;2023-02-19T07:32:31;99541.56;;;8.99;98.83
47430;BME280;33181;49.246;7.372;2023-02-19T07:34:56;99537.25;;;8.98;98.78
47430;BME280;33181;49.246;7.372;2023-02-19T07:37:22;99540.31;;;9.04;98.31
47430;BME280;33181;49.246;7.372;2023-02-19T07:39:48;99545.38;;;9.08;97.66
47430;BME280;33181;49.246;7.372;2023-02-19T07:42:14;99543.53;;;9.10;97.48
47430;BME280;33181;49.246;7.372;2023-02-19T07:44:40;99544.34;;;9.10;97.63
47430;BME280;33181;49.246;7.372;2023-02-19T07:47:06;99544.09;;;9.15;97.81
47430;BME280;33181;49.246;7.372;2023-02-19T07:49:32;99551.94;;;9.15;96.87
47430;BME280;33181;49.246;7.372;2023-02-19T07:51:58;99544.09;;;9.15;97.35
47430;BME280;33181;49.246;7.372;2023-02-19T07:54:24;99552.03;;;9.13;97.49
47430;BME280;33181;49.246;7.372;2023-02-19T07:56:49;99549.69;;;9.23;97.33
47430;BME280;33181;49.246;7.372;2023-02-19T07:59:16;99556.69;;;9.22;96.83
47430;BME280;33181;49.246;7.372;2023-02-19T08:01:44;99556.25;;;9.30;96.17
47430;BME280;33181;49.246;7.372;2023-02-19T08:04:28;99564.69;;;9.21;96.15
47430;BME280;33181;49.246;7.372;2023-02-19T08:06:54;99556.69;;;9.22;96.04
47430;BME280;33181;49.246;7.372;2023-02-19T08:09:20;99568.88;;;9.23;96.99
47430;BME280;33181;49.246;7.372;2023-02-19T08:11:45;99580.03;;;9.27;96.98
47430;BME280;33181;49.246;7.372;2023-02-19T08:14:30;99583.19;;;9.32;96.79
47430;BME280;33181;49.246;7.372;2023-02-19T08:16:55;99588.44;;;9.32;96.94
47430;BME280;33181;49.246;7.372;2023-02-19T08:19:21;99586.75;;;9.31;96.43
47430;BME280;33181;49.246;7.372;2023-02-19T08:21:47;99584.31;;;9.28;96.66
47430;BME280;33181;49.246;7.372;2023-02-19T08:24:15;99594.69;;;9.29;97.14
47430;BME280;33181;49.246;7.372;2023-02-19T08:26:41;99599.41;;;9.24;96.97
47430;BME280;33181;49.246;7.372;2023-02-19T08:29:06;99603.06;;;9.22;97.73
47430;BME280;33181;49.246;7.372;2023-02-19T08:31:33;99602.75;;;9.26;97.88
47430;BME280;33181;49.246;7.372;2023-02-19T08:33:59;99599.56;;;9.36;97.81
47430;BME280;33181;49.246;7.372;2023-02-19T08:36:25;99607.44;;;9.36;96.69
47430;BME280;33181;49.246;7.372;2023-02-19T08:38:51;99616.63;;;9.43;96.11
47430;BME280;33181;49.246;7.372;2023-02-19T08:41:16;99613.06;;;9.44;95.73
47430;BME280;33181;49.246;7.372;2023-02-19T08:43:43;99614.84;;;9.43;96.10
47430;BME280;33181;49.246;7.372;2023-02-19T08:46:10;99613.72;;;9.47;96.03
47430;BME280;33181;49.246;7.372;2023-02-19T08:48:38;99620.94;;;9.44;95.41
47430;BME280;33181;49.246;7.372;2023-02-19T08:51:09;99626.44;;;9.39;96.11
47430;BME280;33181;49.246;7.372;2023-02-19T08:53:36;99622.34;;;9.49;95.98
47430;BME280;33181;49.246;7.372;2023-02-19T08:56:12;99622.22;;;9.51;95.86
47430;BME280;33181;49.246;7.372;2023-02-19T08:58:38;99626.56;;;9.52;94.65
47430;BME280;33181;49.246;7.372;2023-02-19T09:01:13;99623.94;;;9.38;96.36
47430;BME280;33181;49.246;7.372;2023-02-19T09:03:40;99618.13;;;9.47;96.14
47430;BME280;33181;49.246;7.372;2023-02-19T09:06:06;99619.97;;;9.45;95.67
47430;BME280;33181;49.246;7.372;2023-02-19T09:08:32;99609.75;;;9.55;95.97
47430;BME280;33181;49.246;7.372;2023-02-19T09:11:03;99610.22;;;9.61;94.80
47430;BME280;33181;49.246;7.372;2023-02-19T09:13:30;99620.25;;;9.69;94.49
47430;BME280;33181;49.246;7.372;2023-02-19T09:15:56;99625.16;;;9.88;93.70
47430;BME280;33181;49.246;7.372;2023-02-19T09:18:23;99632.09;;;9.89;92.74
47430;BME280;33181;49.246;7.372;2023-02-19T09:20:49;99638.09;;;9.91;93.00
47430;BME280;33181;49.246;7.372;2023-02-19T09:23:15;99639.69;;;9.93;91.74
47430;BME280;33181;49.246;7.372;2023-02-19T09:25:40;99639.28;;;10.00;91.84
47430;BME280;33181;49.246;7.372;2023-02-19T09:28:06;99640.97;;;10.01;90.77
47430;BME280;33181;49.246;7.372;2023-02-19T09:30:32;99640.72;;;9.91;91.11
47430;BME280;33181;49.246;7.372;2023-02-19T09:32:57;99636.09;;;9.94;91.17
47430;BME280;33181;49.246;7.372;2023-02-19T09:35:23;99640.66;;;10.05;92.29
47430;BME280;33181;49.246;7.372;2023-02-19T09:37:49;99641.84;;;10.14;90.98
47430;BME280;33181;49.246;7.372;2023-02-19T09:40:15;99649.97;;;10.24;91.04
47430;BME280;33181;49.246;7.372;2023-02-19T09:42:46;99650.16;;;10.35;91.13
47430;BME280;33181;49.246;7.372;2023-02-19T09:45:25;99662.91;;;10.41;89.39
47430;BME280;33181;49.246;7.372;2023-02-19T09:47:59;99676.03;;;10.41;88.44
47430;BME280;33181;49.246;7.372;2023-02-19T09:50:37;99673.69;;;10.36;89.08
47430;BME280;33181;49.246;7.372;2023-02-19T09:53:35;99683.56;;;10.33;89.07
47430;BME280;33181;49.246;7.372;2023-02-19T09:56:05;99679.47;;;10.29;89.54
47430;BME280;33181;49.246;7.372;2023-02-19T09:58:35;99690.31;;;10.23;88.36
47430;BME280;33181;49.246;7.372;2023-02-19T10:01:05;99690.91;;;10.28;88.63
47430;BME280;33181;49.246;7.372;2023-02-19T10:03:38;99693.47;;;10.42;88.43
47430;BME280;33181;49.246;7.372;2023-02-19T10:06:27;99692.06;;;10.36;88.18
47430;BME280;33181;49.246;7.372;2023-02-19T10:09:21;99688.63;;;10.36;87.82
47430;BME280;33181;49.246;7.372;2023-02-19T10:11:48;99676.25;;;10.38;88.07
47430;BME280;33181;49.246;7.372;2023-02-19T10:14:35;99681.19;;;10.42;88.73
47430;BME280;33181;49.246;7.372;2023-02-19T10:17:04;99675.53;;;10.49;88.22
47430;BME280;33181;49.246;7.372;2023-02-19T10:19:32;99683.25;;;10.64;87.94
47430;BME280;33181;49.246;7.372;2023-02-19T10:22:00;99687.09;;;10.59;86.33
47430;BME280;33181;49.246;7.372;2023-02-19T10:24:28;99690.06;;;10.54;86.50
47430;BME280;33181;49.246;7.372;2023-02-19T10:26:55;99692.56;;;10.56;86.59
47430;BME280;33181;49.246;7.372;2023-02-19T10:29:21;99692.31;;;10.46;87.16
47430;BME280;33181;49.246;7.372;2023-02-19T10:32:12;99698.13;;;10.51;86.64
47430;BME280;33181;49.246;7.372;2023-02-19T10:34:37;99708.19;;;10.44;86.80
47430;BME280;33181;49.246;7.372;2023-02-19T10:37:03;99701.34;;;10.42;87.98
47430;BME280;33181;49.246;7.372;2023-02-19T10:39:48;99704.13;;;10.26;89.38
47430;BME280;33181;49.246;7.372;2023-02-19T10:42:21;99702.69;;;10.20;89.23
47430;BME280;33181;49.246;7.372;2023-02-19T10:44:58;99705.72;;;10.14;89.04
47430;BME280;33181;49.246;7.372;2023-02-19T10:47:29;99697.75;;;10.16;89.37
47430;BME280;33181;49.246;7.372;2023-02-19T10:49:58;99711.84;;;10.01;89.76
47430;BME280;33181;49.246;7.372;2023-02-19T10:52:31;99702.09;;;10.03;91.16
47430;BME280;33181;49.246;7.372;2023-02-19T10:55:34;99710.44;;;10.09;92.00
47430;BME280;33181;49.246;7.372;2023-02-19T10:58:24;99708.78;;;10.21;92.37
47430;BME280;33181;49.246;7.372;2023-02-19T11:01:23;99711.16;;;10.11;92.59
47430;BME280;33181;49.246;7.372;2023-02-19T11:04:29;99714.22;;;10.18;91.79
47430;BME280;33181;49.246;7.372;2023-02-19T11:07:13;99715.75;;;10.08;92.61
47430;BME280;33181;49.246;7.372;2023-02-19T11:09:52;99710.44;;;10.09;92.14
47430;BME280;33181;49.246;7.372;2023-02-19T11:12:32;99707.03;;;10.07;92.25
47430;BME280;33181;49.246;7.372;2023-02-19T11:20:38;99704.47;;;10.20;91.37
47430;BME280;33181;49.246;7.372;2023-02-19T11:23:16;99708.97;;;10.18;91.30
47430;BME280;33181;49.246;7.372;2023-02-19T11:25:48;99718.25;;;10.24;90.55
47430;BME280;33181;49.246;7.372;2023-02-19T11:28:40;99712.81;;;10.41;89.73
47430;BME280;33181;49.246;7.372;2023-02-19T11:34:22;99713.53;;;10.70;86.13
47430;BME280;33181;49.246;7.372;2023-02-19T11:37:18;99715.00;;;10.74;83.36
47430;BME280;33181;49.246;7.372;2023-02-19T11:39:50;99713.16;;;10.89;82.78
47430;BME280;33181;49.246;7.372;2023-02-19T11:42:43;99716.66;;;11.02;81.93
47430;BME280;33181;49.246;7.372;2023-02-19T11:45:29;99716.03;;;11.11;82.09
47430;BME280;33181;49.246;7.372;2023-02-19T11:48:31;99698.25;;;11.15;80.97
47430;BME280;33181;49.246;7.372;2023-02-19T11:51:47;99706.56;;;11.34;80.86
47430;BME280;33181;49.246;7.372;2023-02-19T11:54:49;99713.53;;;11.48;79.80
47430;BME280;33181;49.246;7.372;2023-02-19T11:57:43;99715.53;;;11.57;80.95
47430;BME280;33181;49.246;7.372;2023-02-19T12:00:22;99725.00;;;11.60;78.91
47430;BME280;33181;49.246;7.372;2023-02-19T12:03:21;99711.13;;;11.45;79.38
47430;BME280;33181;49.246;7.372;2023-02-19T12:14:44;99716.69;;;11.28;81.14
47430;BME280;33181;49.246;7.372;2023-02-19T12:23:25;99704.06;;;11.20;79.87
47430;BME280;33181;49.246;7.372;2023-02-19T12:26:33;99717.63;;;11.27;79.55
47430;BME280;33181;49.246;7.372;2023-02-19T12:32:31;99715.97;;;11.26;80.47
47430;BME280;33181;49.246;7.372;2023-02-19T12:38:31;99725.81;;;11.09;81.65
47430;BME280;33181;49.246;7.372;2023-02-19T12:44:47;99713.31;;;11.00;81.60
47430;BME280;33181;49.246;7.372;2023-02-19T12:47:23;99716.00;;;10.86;80.72
47430;BME280;33181;49.246;7.372;2023-02-19T12:50:26;99720.00;;;10.92;78.59
47430;BME280;33181;49.246;7.372;2023-02-19T12:55:46;99720.66;;;11.08;77.41
47430;BME280;33181;49.246;7.372;2023-02-19T12:58:43;99724.47;;;11.04;76.64
47430;BME280;33181;49.246;7.372;2023-02-19T13:01:18;99724.66;;;11.01;76.31
47430;BME280;33181;49.246;7.372;2023-02-19T13:04:15;99721.84;;;11.17;77.34
47430;BME280;33181;49.246;7.372;2023-02-19T13:07:16;99725.19;;;11.31;77.38
47430;BME280;33181;49.246;7.372;2023-02-19T13:09:57;99721.44;;;11.35;77.42
47430;BME280;33181;49.246;7.372;2023-02-19T13:12:33;99718.59;;;11.26;77.19
47430;BME280;33181;49.246;7.372;2023-02-19T13:15:05;99720.16;;;11.28;75.98
47430;BME280;33181;49.246;7.372;2023-02-19T13:17:50;99716.88;;;11.25;76.31
47430;BME280;33181;49.246;7.372;2023-02-19T13:20:19;99726.78;;;11.34;76.45
47430;BME280;33181;49.246;7.372;2023-02-19T13:37:35;99702.06;;;11.36;78.34
47430;BME280;33181;49.246;7.372;2023-02-19T13:40:31;99692.72;;;11.32;79.29
47430;BME280;33181;49.246;7.372;2023-02-19T13:43:07;99685.31;;;11.25;79.77
47430;BME280;33181;49.246;7.372;2023-02-19T13:45:46;99685.88;;;11.43;80.02
47430;BME280;33181;49.246;7.372;2023-02-19T13:48:31;99674.19;;;11.34;79.73
47430;BME280;33181;49.246;7.372;2023-02-19T13:59:37;99669.31;;;11.53;76.53
47430;BME280;33181;49.246;7.372;2023-02-19T14:09:44;99675.66;;;11.51;74.02
47430;BME280;33181;49.246;7.372;2023-02-19T14:14:54;99670.91;;;11.43;71.79
47430;BME280;33181;49.246;7.372;2023-02-19T14:22:57;99678.47;;;11.22;71.13
47430;BME280;33181;49.246;7.372;2023-02-19T14:27:56;99685.75;;;11.31;71.89
47430;BME280;33181;49.246;7.372;2023-02-19T14:30:25;99684.59;;;11.48;71.31
47430;BME280;33181;49.246;7.372;2023-02-19T14:32:52;99692.28;;;11.51;70.94
47430;BME280;33181;49.246;7.372;2023-02-19T14:35:25;99691.44;;;11.51;71.68
47430;BME280;33181;49.246;7.372;2023-02-19T14:37:54;99695.81;;;11.63;71.96
47430;BME280;33181;49.246;7.372;2023-02-19T14:40:26;99693.19;;;11.63;73.24
47430;BME280;33181;49.246;7.372;2023-02-19T14:42:55;99692.91;;;11.55;73.91
47430;BME280;33181;49.246;7.372;2023-02-19T14:45:22;99695.94;;;11.62;74.65
47430;BME280;33181;49.246;7.372;2023-02-19T14:47:49;99697.53;;;11.51;74.92
47430;BME280;33181;49.246;7.372;2023-02-19T14:50:29;99698.91;;;11.57;74.35
47430;BME280;33181;49.246;7.372;2023-02-19T14:53:02;99700.81;;;11.42;74.85
47430;BME280;33181;49.246;7.372;2023-02-19T14:55:32;99702.41;;;11.32;75.06
47430;BME280;33181;49.246;7.372;2023-02-19T14:58:05;99714.78;;;11.30;75.64
47430;BME280;33181;49.246;7.372;2023-02-19T15:00:38;99722.16;;;11.25;75.70
47430;BME280;33181;49.246;7.372;2023-02-19T15:03:05;99716.06;;;11.24;75.64
47430;BME280;33181;49.246;7.372;2023-02-19T15:05:34;99719.22;;;11.17;76.78
47430;BME280;33181;49.246;7.372;2023-02-19T15:08:10;99717.50;;;11.16;76.40
47430;BME280;33181;49.246;7.372;2023-02-19T15:10:41;99707.41;;;11.22;76.76
47430;BME280;33181;49.246;7.372;2023-02-19T15:13:09;99713.75;;;11.20;75.95